Virgem Santissima — CUEQ4 — position and weather

sailwx.info

Track history (hours):
 
Tides and Currents Weather Stations Pressure Air Temp Water Temp Dewpoint Dewpoint Depression Visibility Wind Speed Wind Dir Waves Ship Positions

Virgem Santissima

Last reported at 2017-Oct-21 10:07 UTC. Time now 2017-Oct-22 13:42 UTC.
Position N 41°11' W 008°42'.

Length 24 m.

Type: Fishing. MMSI: 263411270.

Date/timePositionNaut miles runAvg speedWind from/ knotsBaromVisibWave heightAir tempDewpointWater temp
2017-Oct-21 10:07N 41°11' W 008°42'0 0.0
2017-Oct-21 10:00N 41°11' W 008°42'0 0.0
2017-Oct-21 09:30N 41°11' W 008°42'0 0.0
2017-Oct-20 09:51N 41°11' W 008°42'0 0.0
2017-Oct-20 09:30N 41°11' W 008°42'2 0.2
2017-Oct-19 22:09N 41°09' W 008°43'1 9.4
2017-Oct-19 22:00N 41°10' W 008°42'1 0.1
2017-Oct-19 09:45N 41°11' W 008°42'0 0.0
2017-Oct-19 09:30N 41°11' W 008°42'0 0.0
2017-Oct-19 09:01N 41°11' W 008°42'0 0.0
2017-Oct-19 08:31N 41°11' W 008°42'3 5.8
2017-Oct-19 08:01N 41°08' W 008°43'2 0.2
2017-Oct-18 22:26N 41°06' W 008°44'4 9.4
2017-Oct-18 22:00N 41°10' W 008°42'1 0.0
2017-Oct-17 08:15N 41°11' W 008°42'0 0.0
2017-Oct-17 08:01N 41°11' W 008°42'0 0.0
2017-Oct-17 07:30N 41°11' W 008°42'0 0.0
2017-Oct-17 07:00N 41°11' W 008°42'0 0.0
2017-Oct-17 06:30N 41°11' W 008°42'0 0.0
2017-Oct-17 06:01N 41°11' W 008°42'4 9.0
2017-Oct-17 05:31N 41°07' W 008°44'0 0.0
2017-Oct-16 22:31N 41°07' W 008°44'1 9.2
2017-Oct-16 22:28N 41°07' W 008°44'4 8.5
2017-Oct-16 22:00N 41°11' W 008°42'0 0.0
2017-Oct-15 23:19N 41°11' W 008°42'0 0.0
2017-Oct-15 23:00N 41°11' W 008°42'  
2017-Oct-13 09:55N 41°11' W 008°42'0 0.0
2017-Oct-13 09:30N 41°11' W 008°42'0 0.0
2017-Oct-13 09:00N 41°11' W 008°42'0 0.0
2017-Oct-13 08:30N 41°11' W 008°42'0 0.0
2017-Oct-13 08:00N 41°11' W 008°42'0 0.0
2017-Oct-13 07:30N 41°11' W 008°42'0 0.0
2017-Oct-13 07:00N 41°11' W 008°42'0 0.0
2017-Oct-13 06:30N 41°11' W 008°42'0 0.0
2017-Oct-13 06:00N 41°11' W 008°42'0 0.3
2017-Oct-13 05:30N 41°11' W 008°42'4 0.6
2017-Oct-12 22:19N 41°07' W 008°46'310.9
2017-Oct-12 22:00N 41°10' W 008°43'1 0.1
2017-Oct-12 10:03N 41°11' W 008°42'0 0.0
2017-Oct-12 10:00N 41°11' W 008°42'0 0.0
2017-Oct-12 09:30N 41°11' W 008°42'0 0.0
2017-Oct-12 09:01N 41°11' W 008°42'0 0.0
2017-Oct-12 08:30N 41°11' W 008°42'1 1.5
2017-Oct-12 08:00N 41°11' W 008°43'7 4.6
2017-Oct-12 06:33N 41°13' W 008°51'5 0.7
2017-Oct-11 22:20N 41°08' W 008°48'  
Track history (hours):
 
Tides and Currents Weather Stations Pressure Air Temp Water Temp Dewpoint Dewpoint Depression Visibility Wind Speed Wind Dir Waves Ship Positions

Virgem Santissima

Last reported at 2017-Oct-21 10:07 UTC. Time now 2017-Oct-22 13:42 UTC.
Position N 41°11' W 008°42'.

Length 24 m.

Type: Fishing. MMSI: 263411270.

Date/timePositionNaut miles runAvg speedWind from/ knotsBaromVisibWave heightAir tempDewpointWater temp
2017-Oct-21 10:07N 41°11' W 008°42'0 0.0
2017-Oct-21 10:00N 41°11' W 008°42'0 0.0
2017-Oct-21 09:30N 41°11' W 008°42'0 0.0
2017-Oct-20 09:51N 41°11' W 008°42'0 0.0
2017-Oct-20 09:30N 41°11' W 008°42'2 0.2
2017-Oct-19 22:09N 41°09' W 008°43'1 9.4
2017-Oct-19 22:00N 41°10' W 008°42'1 0.1
2017-Oct-19 09:45N 41°11' W 008°42'0 0.0
2017-Oct-19 09:30N 41°11' W 008°42'0 0.0
2017-Oct-19 09:01N 41°11' W 008°42'0 0.0
2017-Oct-19 08:31N 41°11' W 008°42'3 5.8
2017-Oct-19 08:01N 41°08' W 008°43'2 0.2
2017-Oct-18 22:26N 41°06' W 008°44'4 9.4
2017-Oct-18 22:00N 41°10' W 008°42'1 0.0
2017-Oct-17 08:15N 41°11' W 008°42'0 0.0
2017-Oct-17 08:01N 41°11' W 008°42'0 0.0
2017-Oct-17 07:30N 41°11' W 008°42'0 0.0
2017-Oct-17 07:00N 41°11' W 008°42'0 0.0
2017-Oct-17 06:30N 41°11' W 008°42'0 0.0
2017-Oct-17 06:01N 41°11' W 008°42'4 9.0
2017-Oct-17 05:31N 41°07' W 008°44'0 0.0
2017-Oct-16 22:31N 41°07' W 008°44'1 9.2
2017-Oct-16 22:28N 41°07' W 008°44'4 8.5
2017-Oct-16 22:00N 41°11' W 008°42'0 0.0
2017-Oct-15 23:19N 41°11' W 008°42'0 0.0
2017-Oct-15 23:00N 41°11' W 008°42'  
2017-Oct-13 09:55N 41°11' W 008°42'0 0.0
2017-Oct-13 09:30N 41°11' W 008°42'0 0.0
2017-Oct-13 09:00N 41°11' W 008°42'0 0.0
2017-Oct-13 08:30N 41°11' W 008°42'0 0.0
2017-Oct-13 08:00N 41°11' W 008°42'0 0.0
2017-Oct-13 07:30N 41°11' W 008°42'0 0.0
2017-Oct-13 07:00N 41°11' W 008°42'0 0.0
2017-Oct-13 06:30N 41°11' W 008°42'0 0.0
2017-Oct-13 06:00N 41°11' W 008°42'0 0.3
2017-Oct-13 05:30N 41°11' W 008°42'4 0.6
2017-Oct-12 22:19N 41°07' W 008°46'310.9
2017-Oct-12 22:00N 41°10' W 008°43'1 0.1
2017-Oct-12 10:03N 41°11' W 008°42'0 0.0
2017-Oct-12 10:00N 41°11' W 008°42'0 0.0
2017-Oct-12 09:30N 41°11' W 008°42'0 0.0
2017-Oct-12 09:01N 41°11' W 008°42'0 0.0
2017-Oct-12 08:30N 41°11' W 008°42'1 1.5
2017-Oct-12 08:00N 41°11' W 008°43'7 4.6
2017-Oct-12 06:33N 41°13' W 008°51'5 0.7
2017-Oct-11 22:20N 41°08' W 008°48'  

Dump ship's entire track history